This is the latest recevied weather packets stored in our database for station/object WA1DLZ. If no packets are shown the sender has not sent any weather packets the latest 10 day(s).
| Time | Temp. | Humidity | Pressure | Rain* | Wind** | Luminosity | Snow |
|---|---|---|---|---|---|---|---|
| 1777198504 | 1.67° C | 88% | 1018.6 hPa | 0 mm | - | - | - |
| 1777194904 | 1.11° C | 88% | 1018.3 hPa | 0 mm | - | - | - |
| 1777194004 | 1.11° C | 88% | 1018.2 hPa | 0 mm | - | - | - |
| 1777193104 | 1.67° C | 87% | 1018.1 hPa | 0 mm | - | - | - |
| 1777190404 | 2.22° C | 84% | 1017.7 hPa | 0 mm | - | - | - |
| 1777190104 | 2.22° C | 83% | 1017.7 hPa | 0 mm | - | - | - |
| 1777189804 | 2.22° C | 83% | 1017.7 hPa | 0 mm | - | - | - |
| 1777185904 | 3.33° C | 81% | 1017.2 hPa | 0 mm | - | - | - |
| 1777185004 | 2.78° C | 82% | 1017.2 hPa | 0 mm | - | - | - |
| 1777183504 | 2.78° C | 83% | 1017.2 hPa | 0 mm | - | - | - |
| 1777183204 | 2.78° C | 84% | 1017.1 hPa | 0 mm | - | - | - |
| 1777180804 | 3.33° C | 83% | 1017.3 hPa | 0 mm | - | - | - |
| 1777179004 | 3.33° C | 81% | 1017.5 hPa | 0 mm | - | - | - |
| 1777176003 | 2.78° C | 82% | 1017.2 hPa | 0 mm | - | - | - |
| 1777175403 | 2.78° C | 82% | 1017.2 hPa | 0 mm | - | - | - |
| 1777174803 | 2.78° C | 81% | 1017.2 hPa | 0 mm | - | - | - |
| 1777173903 | 2.78° C | 81% | 1017.2 hPa | 0 mm | - | - | - |
| 1777173303 | 2.78° C | 82% | 1017.1 hPa | 0 mm | - | - | - |
| 1777173002 | 2.78° C | 81% | 1017.2 hPa | 0 mm | - | - | - |
| 1777172703 | 2.78° C | 81% | 1017.2 hPa | 0 mm | - | - | - |
| 1777171203 | 3.33° C | 81% | 1017.1 hPa | 0 mm | - | - | - |
| 1777170903 | 3.33° C | 80% | 1017.1 hPa | 0 mm | - | - | - |
| 1777166703 | 5° C | 74% | 1016.6 hPa | 0 mm | - | - | - |
| 1777165803 | 5.56° C | 72% | 1016.6 hPa | 0 mm | - | - | - |
| 1777164603 | 6.67° C | 70% | 1016.4 hPa | 0 mm | - | - | - |
* Rain latest hour (hover to see other rain measurements)
** Current wind speed in m/s (hover to see current wind gust speed)